sensor_id;sensor_type;location;lat;lon;timestamp;pressure;altitude;pressure_sealevel;temperature;humidity
6395;BME280;3230;42.588;23.358;2023-01-28T00:02:05;90228.50;;;-2.70;100.00
6395;BME280;3230;42.588;23.358;2023-01-28T00:04:30;90230.69;;;-2.55;100.00
6395;BME280;3230;42.588;23.358;2023-01-28T00:06:56;90237.63;;;-2.55;100.00
6395;BME280;3230;42.588;23.358;2023-01-28T00:09:21;90240.47;;;-2.64;100.00
6395;BME280;3230;42.588;23.358;2023-01-28T00:11:47;90245.09;;;-2.54;100.00
6395;BME280;3230;42.588;23.358;2023-01-28T00:14:12;90246.03;;;-2.48;100.00
6395;BME280;3230;42.588;23.358;2023-01-28T00:16:38;90252.50;;;-2.46;100.00
6395;BME280;3230;42.588;23.358;2023-01-28T00:19:03;90247.28;;;-2.58;100.00
6395;BME280;3230;42.588;23.358;2023-01-28T00:21:28;90254.00;;;-2.57;100.00
6395;BME280;3230;42.588;23.358;2023-01-28T00:23:55;90266.59;;;-2.55;100.00
6395;BME280;3230;42.588;23.358;2023-01-28T00:26:21;90257.28;;;-2.49;100.00
6395;BME280;3230;42.588;23.358;2023-01-28T00:28:47;90265.38;;;-2.52;100.00
6395;BME280;3230;42.588;23.358;2023-01-28T00:33:42;90263.47;;;-2.57;100.00
6395;BME280;3230;42.588;23.358;2023-01-28T00:36:08;90266.69;;;-2.62;100.00
6395;BME280;3230;42.588;23.358;2023-01-28T00:38:33;90273.59;;;-2.62;100.00
6395;BME280;3230;42.588;23.358;2023-01-28T00:41:16;90278.78;;;-2.69;100.00
6395;BME280;3230;42.588;23.358;2023-01-28T00:43:43;90267.41;;;-2.54;100.00
6395;BME280;3230;42.588;23.358;2023-01-28T00:46:10;90281.06;;;-2.61;100.00
6395;BME280;3230;42.588;23.358;2023-01-28T00:48:37;90282.41;;;-2.77;100.00
6395;BME280;3230;42.588;23.358;2023-01-28T00:51:03;90274.66;;;-2.70;100.00
6395;BME280;3230;42.588;23.358;2023-01-28T00:53:29;90275.38;;;-2.63;100.00
6395;BME280;3230;42.588;23.358;2023-01-28T00:55:55;90275.88;;;-2.72;100.00
6395;BME280;3230;42.588;23.358;2023-01-28T00:58:20;90276.28;;;-2.76;100.00
6395;BME280;3230;42.588;23.358;2023-01-28T01:00:49;90261.13;;;-2.77;100.00
6395;BME280;3230;42.588;23.358;2023-01-28T01:03:15;90262.88;;;-2.78;100.00
6395;BME280;3230;42.588;23.358;2023-01-28T01:05:41;90267.38;;;-2.73;100.00
6395;BME280;3230;42.588;23.358;2023-01-28T01:08:06;90266.81;;;-2.75;100.00
6395;BME280;3230;42.588;23.358;2023-01-28T01:10:31;90260.25;;;-2.71;100.00
6395;BME280;3230;42.588;23.358;2023-01-28T01:12:57;90265.53;;;-2.66;100.00
6395;BME280;3230;42.588;23.358;2023-01-28T01:15:23;90272.78;;;-2.81;100.00
6395;BME280;3230;42.588;23.358;2023-01-28T01:17:49;90275.88;;;-2.72;100.00
6395;BME280;3230;42.588;23.358;2023-01-28T01:20:23;90270.56;;;-2.78;100.00
6395;BME280;3230;42.588;23.358;2023-01-28T01:22:49;90274.28;;;-2.74;100.00
6395;BME280;3230;42.588;23.358;2023-01-28T01:25:16;90277.81;;;-2.68;100.00
6395;BME280;3230;42.588;23.358;2023-01-28T01:27:43;90280.16;;;-2.66;100.00
6395;BME280;3230;42.588;23.358;2023-01-28T01:30:10;90278.22;;;-2.71;100.00
6395;BME280;3230;42.588;23.358;2023-01-28T01:32:36;90279.34;;;-2.67;100.00
6395;BME280;3230;42.588;23.358;2023-01-28T01:35:03;90273.50;;;-2.74;100.00
6395;BME280;3230;42.588;23.358;2023-01-28T01:37:30;90275.44;;;-2.69;100.00
6395;BME280;3230;42.588;23.358;2023-01-28T01:39:55;90277.81;;;-2.68;100.00
6395;BME280;3230;42.588;23.358;2023-01-28T01:42:21;90271.66;;;-2.67;100.00
6395;BME280;3230;42.588;23.358;2023-01-28T01:47:17;90280.16;;;-2.66;100.00
6395;BME280;3230;42.588;23.358;2023-01-28T01:49:43;90273.50;;;-2.74;100.00
6395;BME280;3230;42.588;23.358;2023-01-28T01:52:15;90272.13;;;-2.77;100.00
6395;BME280;3230;42.588;23.358;2023-01-28T01:54:46;90271.94;;;-2.75;100.00
6395;BME280;3230;42.588;23.358;2023-01-28T01:57:15;90276.63;;;-2.72;100.00
6395;BME280;3230;42.588;23.358;2023-01-28T01:59:42;90276.22;;;-2.69;100.00
6395;BME280;3230;42.588;23.358;2023-01-28T02:02:09;90284.28;;;-2.65;100.00
6395;BME280;3230;42.588;23.358;2023-01-28T02:04:39;90281.78;;;-2.72;100.00
6395;BME280;3230;42.588;23.358;2023-01-28T02:07:05;90291.31;;;-2.79;100.00
6395;BME280;3230;42.588;23.358;2023-01-28T02:09:34;90290.44;;;-2.73;100.00
6395;BME280;3230;42.588;23.358;2023-01-28T02:12:34;90292.66;;;-2.77;100.00
6395;BME280;3230;42.588;23.358;2023-01-28T02:15:09;90295.94;;;-2.69;100.00
6395;BME280;3230;42.588;23.358;2023-01-28T02:17:36;90303.09;;;-2.71;100.00
6395;BME280;3230;42.588;23.358;2023-01-28T02:20:06;90297.00;;;-2.77;100.00
6395;BME280;3230;42.588;23.358;2023-01-28T02:22:47;90300.53;;;-2.71;100.00
6395;BME280;3230;42.588;23.358;2023-01-28T02:30:50;90297.59;;;-2.75;100.00
6395;BME280;3230;42.588;23.358;2023-01-28T02:33:40;90298.00;;;-2.78;100.00
6395;BME280;3230;42.588;23.358;2023-01-28T02:38:45;90293.50;;;-2.83;100.00
6395;BME280;3230;42.588;23.358;2023-01-28T02:41:21;90300.72;;;-2.73;100.00
6395;BME280;3230;42.588;23.358;2023-01-28T02:43:49;90303.63;;;-2.69;100.00
6395;BME280;3230;42.588;23.358;2023-01-28T02:48:59;90305.84;;;-2.73;100.00
6395;BME280;3230;42.588;23.358;2023-01-28T02:52:21;90304.63;;;-2.70;100.00
6395;BME280;3230;42.588;23.358;2023-01-28T02:57:56;90309.41;;;-2.74;100.00
6395;BME280;3230;42.588;23.358;2023-01-28T03:00:33;90298.00;;;-2.78;100.00
6395;BME280;3230;42.588;23.358;2023-01-28T03:03:23;90312.28;;;-2.64;100.00
6395;BME280;3230;42.588;23.358;2023-01-28T03:05:58;90307.56;;;-2.67;100.00
6395;BME280;3230;42.588;23.358;2023-01-28T03:11:28;90308.13;;;-2.65;100.00
6395;BME280;3230;42.588;23.358;2023-01-28T03:14:16;90308.56;;;-2.68;100.00
6395;BME280;3230;42.588;23.358;2023-01-28T03:17:01;90305.72;;;-2.60;100.00
6395;BME280;3230;42.588;23.358;2023-01-28T03:19:47;90307.41;;;-2.72;100.00
6395;BME280;3230;42.588;23.358;2023-01-28T03:22:33;90303.28;;;-2.73;100.00
6395;BME280;3230;42.588;23.358;2023-01-28T03:25:20;90314.41;;;-2.61;100.00
6395;BME280;3230;42.588;23.358;2023-01-28T03:28:10;90305.84;;;-2.73;100.00
6395;BME280;3230;42.588;23.358;2023-01-28T03:31:07;90305.69;;;-2.78;100.00
6395;BME280;3230;42.588;23.358;2023-01-28T03:33:52;90309.75;;;-2.70;100.00
6395;BME280;3230;42.588;23.358;2023-01-28T03:36:37;90314.97;;;-2.77;100.00
6395;BME280;3230;42.588;23.358;2023-01-28T03:39:12;90309.50;;;-2.87;100.00
6395;BME280;3230;42.588;23.358;2023-01-28T03:41:38;90313.03;;;-2.82;100.00
6395;BME280;3230;42.588;23.358;2023-01-28T03:44:04;90311.41;;;-2.76;100.00
6395;BME280;3230;42.588;23.358;2023-01-28T03:46:48;90309.94;;;-2.91;100.00
6395;BME280;3230;42.588;23.358;2023-01-28T03:49:15;90312.28;;;-2.89;100.00
6395;BME280;3230;42.588;23.358;2023-01-28T03:51:40;90308.97;;;-2.90;100.00
6395;BME280;3230;42.588;23.358;2023-01-28T03:54:06;90313.72;;;-2.93;100.00
6395;BME280;3230;42.588;23.358;2023-01-28T03:56:31;90314.75;;;-3.01;100.00
6395;BME280;3230;42.588;23.358;2023-01-28T03:59:02;90317.41;;;-2.89;100.00
6395;BME280;3230;42.588;23.358;2023-01-28T04:01:28;90321.34;;;-2.86;100.00
6395;BME280;3230;42.588;23.358;2023-01-28T04:03:53;90315.91;;;-2.97;100.00
6395;BME280;3230;42.588;23.358;2023-01-28T04:06:18;90321.25;;;-2.98;100.00
6395;BME280;3230;42.588;23.358;2023-01-28T04:08:44;90317.53;;;-3.02;100.00
6395;BME280;3230;42.588;23.358;2023-01-28T04:11:13;90321.88;;;-3.03;100.00
6395;BME280;3230;42.588;23.358;2023-01-28T04:13:44;90320.09;;;-3.02;100.00
6395;BME280;3230;42.588;23.358;2023-01-28T04:16:14;90338.03;;;-3.02;100.00
6395;BME280;3230;42.588;23.358;2023-01-28T04:18:41;90335.06;;;-2.99;100.00
6395;BME280;3230;42.588;23.358;2023-01-28T04:21:07;90332.06;;;-2.96;100.00
6395;BME280;3230;42.588;23.358;2023-01-28T04:23:33;90328.00;;;-3.04;100.00
6395;BME280;3230;42.588;23.358;2023-01-28T04:25:58;90337.56;;;-2.93;100.00
6395;BME280;3230;42.588;23.358;2023-01-28T04:28:24;90334.84;;;-2.98;100.00
6395;BME280;3230;42.588;23.358;2023-01-28T04:30:50;90346.69;;;-2.97;100.00
6395;BME280;3230;42.588;23.358;2023-01-28T04:33:16;90342.69;;;-2.93;100.00
6395;BME280;3230;42.588;23.358;2023-01-28T04:35:41;90351.22;;;-2.99;100.00
6395;BME280;3230;42.588;23.358;2023-01-28T04:38:07;90344.38;;;-3.05;100.00
6395;BME280;3230;42.588;23.358;2023-01-28T04:40:32;90353.78;;;-2.99;100.00
6395;BME280;3230;42.588;23.358;2023-01-28T04:42:58;90353.03;;;-3.06;100.00
6395;BME280;3230;42.588;23.358;2023-01-28T04:45:23;90355.00;;;-3.01;100.00
6395;BME280;3230;42.588;23.358;2023-01-28T04:47:49;90347.50;;;-3.03;100.00
6395;BME280;3230;42.588;23.358;2023-01-28T04:50:14;90358.53;;;-3.02;100.00
6395;BME280;3230;42.588;23.358;2023-01-28T04:52:40;90347.75;;;-3.11;100.00
6395;BME280;3230;42.588;23.358;2023-01-28T04:55:06;90360.34;;;-3.03;100.00
6395;BME280;3230;42.588;23.358;2023-01-28T04:57:32;90371.56;;;-3.04;100.00
6395;BME280;3230;42.588;23.358;2023-01-28T04:59:57;90367.22;;;-3.03;100.00
6395;BME280;3230;42.588;23.358;2023-01-28T05:02:22;90360.88;;;-3.01;100.00
6395;BME280;3230;42.588;23.358;2023-01-28T05:04:48;90368.06;;;-3.10;100.00
6395;BME280;3230;42.588;23.358;2023-01-28T05:07:13;90376.13;;;-3.06;100.00
6395;BME280;3230;42.588;23.358;2023-01-28T05:09:38;90382.22;;;-3.07;100.00
6395;BME280;3230;42.588;23.358;2023-01-28T05:12:04;90387.34;;;-3.07;100.00
6395;BME280;3230;42.588;23.358;2023-01-28T05:14:29;90391.34;;;-3.11;100.00
6395;BME280;3230;42.588;23.358;2023-01-28T05:16:55;90381.03;;;-3.05;100.00
6395;BME280;3230;42.588;23.358;2023-01-28T05:19:20;90390.09;;;-3.02;100.00
6395;BME280;3230;42.588;23.358;2023-01-28T05:21:46;90393.66;;;-3.03;100.00
6395;BME280;3230;42.588;23.358;2023-01-28T05:24:11;90390.88;;;-3.01;100.00
6395;BME280;3230;42.588;23.358;2023-01-28T05:26:37;90392.81;;;-2.97;100.00
6395;BME280;3230;42.588;23.358;2023-01-28T05:29:03;90398.34;;;-3.00;100.00
6395;BME280;3230;42.588;23.358;2023-01-28T05:31:28;90400.34;;;-3.02;100.00
6395;BME280;3230;42.588;23.358;2023-01-28T05:33:54;90393.59;;;-2.96;100.00
6395;BME280;3230;42.588;23.358;2023-01-28T05:36:19;90398.69;;;-2.90;100.00
6395;BME280;3230;42.588;23.358;2023-01-28T05:38:44;90404.81;;;-2.91;100.00
6395;BME280;3230;42.588;23.358;2023-01-28T05:41:10;90395.94;;;-2.95;100.00
6395;BME280;3230;42.588;23.358;2023-01-28T05:43:35;90401.50;;;-2.98;100.00
6395;BME280;3230;42.588;23.358;2023-01-28T05:46:01;90402.25;;;-2.91;100.00
6395;BME280;3230;42.588;23.358;2023-01-28T05:48:26;90406.19;;;-2.95;100.00
6395;BME280;3230;42.588;23.358;2023-01-28T05:50:52;90411.69;;;-2.91;100.00
6395;BME280;3230;42.588;23.358;2023-01-28T05:53:18;90415.81;;;-2.83;100.00
6395;BME280;3230;42.588;23.358;2023-01-28T05:55:49;90411.88;;;-2.86;100.00
6395;BME280;3230;42.588;23.358;2023-01-28T05:58:15;90419.28;;;-2.78;100.00
6395;BME280;3230;42.588;23.358;2023-01-28T06:00:41;90410.97;;;-2.73;100.00
6395;BME280;3230;42.588;23.358;2023-01-28T06:03:06;90419.47;;;-2.72;100.00
6395;BME280;3230;42.588;23.358;2023-01-28T06:05:32;90428.94;;;-2.73;100.00
6395;BME280;3230;42.588;23.358;2023-01-28T06:07:57;90436.38;;;-2.65;100.00
6395;BME280;3230;42.588;23.358;2023-01-28T06:10:23;90432.44;;;-2.67;100.00
6395;BME280;3230;42.588;23.358;2023-01-28T06:12:48;90433.97;;;-2.60;100.00
6395;BME280;3230;42.588;23.358;2023-01-28T06:15:14;90434.28;;;-2.49;100.00
6395;BME280;3230;42.588;23.358;2023-01-28T06:17:39;90438.47;;;-2.30;100.00
6395;BME280;3230;42.588;23.358;2023-01-28T06:20:05;90437.63;;;-2.23;100.00
6395;BME280;3230;42.588;23.358;2023-01-28T06:22:32;90451.81;;;-2.21;100.00
6395;BME280;3230;42.588;23.358;2023-01-28T06:24:57;90444.34;;;-2.22;100.00
6395;BME280;3230;42.588;23.358;2023-01-28T06:27:23;90454.03;;;-2.06;100.00
6395;BME280;3230;42.588;23.358;2023-01-28T06:29:48;90449.63;;;-1.99;100.00
6395;BME280;3230;42.588;23.358;2023-01-28T06:32:14;90456.69;;;-2.13;100.00
6395;BME280;3230;42.588;23.358;2023-01-28T06:34:39;90465.47;;;-2.02;100.00
6395;BME280;3230;42.588;23.358;2023-01-28T06:37:05;90468.59;;;-2.00;100.00
6395;BME280;3230;42.588;23.358;2023-01-28T06:39:31;90472.72;;;-2.17;100.00
6395;BME280;3230;42.588;23.358;2023-01-28T06:41:57;90480.16;;;-2.09;100.00
6395;BME280;3230;42.588;23.358;2023-01-28T06:44:23;90483.84;;;-2.05;100.00
6395;BME280;3230;42.588;23.358;2023-01-28T06:46:49;90468.22;;;-2.22;100.00
6395;BME280;3230;42.588;23.358;2023-01-28T06:49:14;90487.63;;;-2.07;100.00
6395;BME280;3230;42.588;23.358;2023-01-28T06:51:40;90488.00;;;-2.04;100.00
6395;BME280;3230;42.588;23.358;2023-01-28T06:54:05;90482.75;;;-1.90;100.00
6395;BME280;3230;42.588;23.358;2023-01-28T06:56:31;90484.81;;;-1.99;100.00
6395;BME280;3230;42.588;23.358;2023-01-28T06:58:56;90484.09;;;-2.06;100.00
6395;BME280;3230;42.588;23.358;2023-01-28T07:01:22;90501.16;;;-1.94;100.00
6395;BME280;3230;42.588;23.358;2023-01-28T07:03:47;90505.50;;;-1.94;100.00
6395;BME280;3230;42.588;23.358;2023-01-28T07:06:13;90502.34;;;-1.96;100.00
6395;BME280;3230;42.588;23.358;2023-01-28T07:08:38;90507.66;;;-1.91;100.00
6395;BME280;3230;42.588;23.358;2023-01-28T07:11:05;90510.16;;;-1.84;100.00
6395;BME280;3230;42.588;23.358;2023-01-28T07:13:31;90510.66;;;-1.75;100.00
6395;BME280;3230;42.588;23.358;2023-01-28T07:15:57;90513.75;;;-1.67;100.00
6395;BME280;3230;42.588;23.358;2023-01-28T07:18:22;90521.78;;;-1.82;100.00
6395;BME280;3230;42.588;23.358;2023-01-28T07:20:48;90524.56;;;-1.83;100.00
6395;BME280;3230;42.588;23.358;2023-01-28T07:23:13;90536.78;;;-1.79;100.00
6395;BME280;3230;42.588;23.358;2023-01-28T07:25:39;90532.28;;;-1.83;100.00
6395;BME280;3230;42.588;23.358;2023-01-28T07:28:04;90539.56;;;-1.80;100.00
6395;BME280;3230;42.588;23.358;2023-01-28T07:30:30;90545.25;;;-1.78;100.00
6395;BME280;3230;42.588;23.358;2023-01-28T07:32:56;90544.22;;;-1.70;100.00
6395;BME280;3230;42.588;23.358;2023-01-28T07:35:23;90545.44;;;-1.73;100.00
6395;BME280;3230;42.588;23.358;2023-01-28T07:37:57;90545.50;;;-1.61;100.00
6395;BME280;3230;42.588;23.358;2023-01-28T07:40:24;90546.81;;;-1.52;100.00
6395;BME280;3230;42.588;23.358;2023-01-28T07:42:50;90551.25;;;-1.40;100.00
6395;BME280;3230;42.588;23.358;2023-01-28T07:45:16;90547.19;;;-1.30;100.00
6395;BME280;3230;42.588;23.358;2023-01-28T07:47:42;90546.19;;;-1.29;100.00
6395;BME280;3230;42.588;23.358;2023-01-28T07:50:09;90553.97;;;-0.98;100.00
6395;BME280;3230;42.588;23.358;2023-01-28T07:52:36;90559.19;;;-0.86;100.00
6395;BME280;3230;42.588;23.358;2023-01-28T07:55:09;90556.88;;;-0.76;100.00
6395;BME280;3230;42.588;23.358;2023-01-28T07:57:36;90558.72;;;-0.65;100.00
6395;BME280;3230;42.588;23.358;2023-01-28T08:00:02;90558.16;;;-0.67;100.00
6395;BME280;3230;42.588;23.358;2023-01-28T08:02:27;90558.75;;;-0.53;100.00
6395;BME280;3230;42.588;23.358;2023-01-28T08:04:53;90570.63;;;-0.52;100.00
6395;BME280;3230;42.588;23.358;2023-01-28T08:07:18;90567.38;;;-0.77;100.00
6395;BME280;3230;42.588;23.358;2023-01-28T08:09:44;90572.78;;;-0.67;100.00
6395;BME280;3230;42.588;23.358;2023-01-28T08:12:09;90560.88;;;-0.80;100.00
6395;BME280;3230;42.588;23.358;2023-01-28T08:14:34;90563.59;;;-0.75;100.00
6395;BME280;3230;42.588;23.358;2023-01-28T08:17:00;90568.94;;;-0.76;100.00
6395;BME280;3230;42.588;23.358;2023-01-28T08:19:25;90570.84;;;-0.53;100.00
6395;BME280;3230;42.588;23.358;2023-01-28T08:21:51;90575.69;;;-0.45;100.00
6395;BME280;3230;42.588;23.358;2023-01-28T08:24:16;90565.56;;;-0.28;100.00
6395;BME280;3230;42.588;23.358;2023-01-28T08:26:42;90581.38;;;-0.24;100.00
6395;BME280;3230;42.588;23.358;2023-01-28T08:29:07;90578.22;;;-0.26;100.00
6395;BME280;3230;42.588;23.358;2023-01-28T08:31:33;90583.00;;;-0.30;100.00
6395;BME280;3230;42.588;23.358;2023-01-28T08:33:58;90583.88;;;-0.36;100.00
6395;BME280;3230;42.588;23.358;2023-01-28T08:36:24;90581.00;;;-0.28;100.00
6395;BME280;3230;42.588;23.358;2023-01-28T08:38:53;90582.78;;;-0.28;100.00
6395;BME280;3230;42.588;23.358;2023-01-28T08:41:22;90590.97;;;-0.31;100.00
6395;BME280;3230;42.588;23.358;2023-01-28T08:43:48;90584.06;;;-0.19;100.00
6395;BME280;3230;42.588;23.358;2023-01-28T08:46:14;90585.34;;;-0.28;100.00
6395;BME280;3230;42.588;23.358;2023-01-28T08:48:40;90585.28;;;-0.10;100.00
6395;BME280;3230;42.588;23.358;2023-01-28T08:51:06;90589.03;;;-0.06;100.00
6395;BME280;3230;42.588;23.358;2023-01-28T08:53:31;90583.44;;;0.09;100.00
6395;BME280;3230;42.588;23.358;2023-01-28T08:55:57;90595.16;;;0.36;100.00
6395;BME280;3230;42.588;23.358;2023-01-28T08:58:22;90587.53;;;0.53;100.00
6395;BME280;3230;42.588;23.358;2023-01-28T09:00:49;90592.59;;;0.71;100.00
6395;BME280;3230;42.588;23.358;2023-01-28T09:03:15;90590.44;;;0.92;100.00
6395;BME280;3230;42.588;23.358;2023-01-28T09:05:40;90591.66;;;1.13;100.00
6395;BME280;3230;42.588;23.358;2023-01-28T09:08:09;90595.09;;;1.31;99.15
6395;BME280;3230;42.588;23.358;2023-01-28T09:10:36;90595.19;;;1.48;98.61
6395;BME280;3230;42.588;23.358;2023-01-28T09:13:11;90593.56;;;1.58;97.85
6395;BME280;3230;42.588;23.358;2023-01-28T09:15:38;90599.00;;;1.45;97.32
6395;BME280;3230;42.588;23.358;2023-01-28T09:18:04;90599.94;;;1.68;97.23
6395;BME280;3230;42.588;23.358;2023-01-28T09:20:29;90598.69;;;1.30;96.72
6395;BME280;3230;42.588;23.358;2023-01-28T09:22:57;90596.75;;;1.78;96.95
6395;BME280;3230;42.588;23.358;2023-01-28T09:25:23;90604.91;;;1.57;96.80
6395;BME280;3230;42.588;23.358;2023-01-28T09:27:48;90607.16;;;1.54;96.12
6395;BME280;3230;42.588;23.358;2023-01-28T09:30:14;90596.53;;;1.79;97.53
6395;BME280;3230;42.588;23.358;2023-01-28T09:32:40;90605.28;;;2.07;96.18
6395;BME280;3230;42.588;23.358;2023-01-28T09:35:06;90608.78;;;2.01;95.44
6395;BME280;3230;42.588;23.358;2023-01-28T09:37:31;90582.19;;;2.17;95.02
6395;BME280;3230;42.588;23.358;2023-01-28T09:39:56;90603.91;;;1.87;94.69
6395;BME280;3230;42.588;23.358;2023-01-28T09:45:15;90599.22;;;2.30;95.26
6395;BME280;3230;42.588;23.358;2023-01-28T09:47:51;90598.88;;;1.81;94.03
6395;BME280;3230;42.588;23.358;2023-01-28T09:50:26;90607.34;;;1.64;95.35
6395;BME280;3230;42.588;23.358;2023-01-28T09:52:59;90608.16;;;1.65;96.39
6395;BME280;3230;42.588;23.358;2023-01-28T09:58:21;90594.84;;;1.73;95.72
6395;BME280;3230;42.588;23.358;2023-01-28T10:06:27;90591.16;;;1.69;95.13
6395;BME280;3230;42.588;23.358;2023-01-28T10:14:12;90593.25;;;1.84;96.30
6395;BME280;3230;42.588;23.358;2023-01-28T10:16:56;90601.59;;;2.03;95.91
6395;BME280;3230;42.588;23.358;2023-01-28T10:19:32;90589.69;;;2.02;95.85
6395;BME280;3230;42.588;23.358;2023-01-28T10:22:03;90588.28;;;2.11;95.94
6395;BME280;3230;42.588;23.358;2023-01-28T10:24:38;90583.72;;;1.84;95.61
6395;BME280;3230;42.588;23.358;2023-01-28T10:27:19;90586.94;;;1.63;96.48
6395;BME280;3230;42.588;23.358;2023-01-28T10:29:47;90584.44;;;1.68;96.00
6395;BME280;3230;42.588;23.358;2023-01-28T10:34:54;90588.56;;;1.40;97.68
6395;BME280;3230;42.588;23.358;2023-01-28T10:37:20;90591.38;;;1.38;97.59
6395;BME280;3230;42.588;23.358;2023-01-28T10:39:46;90591.63;;;1.37;97.80
6395;BME280;3230;42.588;23.358;2023-01-28T10:42:16;90584.56;;;1.20;97.92
6395;BME280;3230;42.588;23.358;2023-01-28T10:44:46;90585.03;;;1.17;98.47
6395;BME280;3230;42.588;23.358;2023-01-28T10:47:22;90575.81;;;1.21;99.73
6395;BME280;3230;42.588;23.358;2023-01-28T10:49:54;90571.38;;;1.05;100.00
6395;BME280;3230;42.588;23.358;2023-01-28T10:52:23;90574.97;;;0.92;100.00
6395;BME280;3230;42.588;23.358;2023-01-28T10:55:01;90575.91;;;1.26;100.00
6395;BME280;3230;42.588;23.358;2023-01-28T10:57:27;90572.81;;;1.13;99.43
6395;BME280;3230;42.588;23.358;2023-01-28T10:59:53;90581.63;;;1.28;99.71
6395;BME280;3230;42.588;23.358;2023-01-28T11:02:23;90578.78;;;1.01;99.50
6395;BME280;3230;42.588;23.358;2023-01-28T11:05:15;90579.03;;;1.40;99.73
6395;BME280;3230;42.588;23.358;2023-01-28T11:07:45;90580.16;;;1.33;99.81
6395;BME280;3230;42.588;23.358;2023-01-28T11:10:27;90576.06;;;1.20;98.93
6395;BME280;3230;42.588;23.358;2023-01-28T11:12:55;90572.50;;;0.97;99.20
6395;BME280;3230;42.588;23.358;2023-01-28T11:15:21;90570.72;;;0.98;99.54
6395;BME280;3230;42.588;23.358;2023-01-28T11:17:47;90572.34;;;1.16;100.00
6395;BME280;3230;42.588;23.358;2023-01-28T11:20:20;90575.13;;;1.38;99.54
6395;BME280;3230;42.588;23.358;2023-01-28T11:22:47;90578.66;;;1.08;99.86
6395;BME280;3230;42.588;23.358;2023-01-28T11:25:17;90578.31;;;1.04;99.75
6395;BME280;3230;42.588;23.358;2023-01-28T11:27:48;90578.00;;;0.89;99.45
6395;BME280;3230;42.588;23.358;2023-01-28T11:30:26;90577.75;;;1.02;100.00
6395;BME280;3230;42.588;23.358;2023-01-28T11:33:13;90576.03;;;1.32;99.04
6395;BME280;3230;42.588;23.358;2023-01-28T11:35:39;90573.88;;;1.28;98.18
6395;BME280;3230;42.588;23.358;2023-01-28T11:38:19;90578.69;;;1.49;97.75
6395;BME280;3230;42.588;23.358;2023-01-28T11:40:54;90579.63;;;1.31;96.73
6395;BME280;3230;42.588;23.358;2023-01-28T11:43:22;90586.09;;;1.45;96.98
6395;BME280;3230;42.588;23.358;2023-01-28T11:51:03;90566.94;;;1.87;95.08
6395;BME280;3230;42.588;23.358;2023-01-28T11:54:36;90585.41;;;2.24;94.97
6395;BME280;3230;42.588;23.358;2023-01-28T11:57:07;90582.56;;;2.09;93.65
6395;BME280;3230;42.588;23.358;2023-01-28T11:59:42;90579.41;;;2.07;92.96
6395;BME280;3230;42.588;23.358;2023-01-28T12:05:15;90583.34;;;1.92;93.99
6395;BME280;3230;42.588;23.358;2023-01-28T12:29:00;90581.22;;;1.08;98.16
6395;BME280;3230;42.588;23.358;2023-01-28T12:34:40;90583.41;;;1.40;98.11
6395;BME280;3230;42.588;23.358;2023-01-28T12:42:53;90592.13;;;0.98;98.47
6395;BME280;3230;42.588;23.358;2023-01-28T12:45:28;90592.44;;;1.02;99.43
6395;BME280;3230;42.588;23.358;2023-01-28T12:48:13;90595.13;;;1.07;98.84
6395;BME280;3230;42.588;23.358;2023-01-28T12:50:45;90597.63;;;1.02;98.08
6395;BME280;3230;42.588;23.358;2023-01-28T12:53:36;90604.34;;;1.03;97.95
6395;BME280;3230;42.588;23.358;2023-01-28T12:56:16;90606.88;;;1.26;97.80
6395;BME280;3230;42.588;23.358;2023-01-28T12:58:54;90621.63;;;0.90;97.70
6395;BME280;3230;42.588;23.358;2023-01-28T13:01:53;90607.59;;;0.98;97.95
6395;BME280;3230;42.588;23.358;2023-01-28T13:04:35;90609.28;;;1.04;98.95
6395;BME280;3230;42.588;23.358;2023-01-28T13:07:07;90614.78;;;1.08;98.59
6395;BME280;3230;42.588;23.358;2023-01-28T13:09:37;90604.44;;;0.96;98.63
6395;BME280;3230;42.588;23.358;2023-01-28T13:12:08;90609.03;;;1.06;98.22
6395;BME280;3230;42.588;23.358;2023-01-28T13:14:34;90616.00;;;0.93;98.94
6395;BME280;3230;42.588;23.358;2023-01-28T13:17:24;90620.06;;;0.89;99.32
6395;BME280;3230;42.588;23.358;2023-01-28T13:19:50;90619.41;;;0.94;99.83
6395;BME280;3230;42.588;23.358;2023-01-28T13:22:34;90625.66;;;0.86;100.00
6395;BME280;3230;42.588;23.358;2023-01-28T13:27:38;90620.84;;;0.90;100.00
6395;BME280;3230;42.588;23.358;2023-01-28T13:30:25;90621.03;;;1.24;100.00
6395;BME280;3230;42.588;23.358;2023-01-28T13:33:03;90621.47;;;1.33;99.89
6395;BME280;3230;42.588;23.358;2023-01-28T13:38:09;90624.97;;;0.79;99.32
6395;BME280;3230;42.588;23.358;2023-01-28T13:40:39;90642.38;;;0.84;99.40
6395;BME280;3230;42.588;23.358;2023-01-28T13:46:01;90641.81;;;0.82;99.23
6395;BME280;3230;42.588;23.358;2023-01-28T13:48:38;90648.56;;;0.71;99.52
6395;BME280;3230;42.588;23.358;2023-01-28T13:51:14;90645.97;;;0.71;99.37
6395;BME280;3230;42.588;23.358;2023-01-28T13:53:52;90644.59;;;0.68;99.93
6395;BME280;3230;42.588;23.358;2023-01-28T13:56:31;90652.56;;;0.67;99.39
6395;BME280;3230;42.588;23.358;2023-01-28T14:05:08;90661.84;;;0.56;99.93
6395;BME280;3230;42.588;23.358;2023-01-28T14:10:53;90666.34;;;0.18;100.00
6395;BME280;3230;42.588;23.358;2023-01-28T14:18:25;90666.28;;;-0.06;100.00
6395;BME280;3230;42.588;23.358;2023-01-28T14:20:52;90672.75;;;-0.15;100.00
6395;BME280;3230;42.588;23.358;2023-01-28T14:23:21;90680.47;;;-0.15;100.00
6395;BME280;3230;42.588;23.358;2023-01-28T14:29:15;90678.75;;;-0.21;100.00
6395;BME280;3230;42.588;23.358;2023-01-28T14:31:44;90678.91;;;-0.35;100.00
6395;BME280;3230;42.588;23.358;2023-01-28T14:34:26;90682.63;;;-0.30;100.00
6395;BME280;3230;42.588;23.358;2023-01-28T14:36:55;90680.50;;;-0.34;100.00
6395;BME280;3230;42.588;23.358;2023-01-28T14:39:42;90681.22;;;-0.45;100.00
6395;BME280;3230;42.588;23.358;2023-01-28T14:42:30;90684.94;;;-0.41;100.00
6395;BME280;3230;42.588;23.358;2023-01-28T14:59:50;90702.47;;;-0.68;100.00
6395;BME280;3230;42.588;23.358;2023-01-28T15:01:57;90704.09;;;-0.55;100.00
6395;BME280;3230;42.588;23.358;2023-01-28T15:04:27;90709.53;;;-0.63;100.00
6395;BME280;3230;42.588;23.358;2023-01-28T15:06:54;90697.63;;;-0.83;100.00
6395;BME280;3230;42.588;23.358;2023-01-28T15:09:20;90707.88;;;-0.76;100.00
6395;BME280;3230;42.588;23.358;2023-01-28T15:11:48;90703.81;;;-0.66;100.00
6395;BME280;3230;42.588;23.358;2023-01-28T15:14:27;90706.78;;;-0.87;100.00
6395;BME280;3230;42.588;23.358;2023-01-28T15:16:54;90715.22;;;-0.99;100.00
6395;BME280;3230;42.588;23.358;2023-01-28T15:19:29;90717.13;;;-0.94;100.00